Runaway Bay, Texas
Current Conditions -  °F | °C
As of 12:55 AM on Sunday 26 Oct 2014 (Local Time) from KXBP Reporting Station
Clear Clear  
Wind Chill: 23°   Ceiling: Unl
Heat Index: 23°   Visibility: 10mi
Dew Point: 16°   Wind: 8mph
Humidity: 65%   Direction: 190°S
Pressure: 30.04"   Gusts: NA
Location:  33.1691°N, 97.8246°W
Report Text: KXBP 260555Z AUTO 19007KT 10SM CLR 23/16 A3004 RMK AO2 T02250156 10273 20225 403240132
Loading
Personal Weather Stations






























Interactive Weather Map
Tropical Storm Tracking
New forecast layout! Learn more

10-Day Weather Forecast

Advertisements
Track Severe Weather on mobile